Time;durP1;ratioP1;P1;durP2;ratioP2;P2;SDS_P1;SDS_P2;PMS_P1;PMS_P2;Temp;Humidity;BMP_temperature;BMP_pressure;BME280_temperature;BME280_humidity;BME280_pressure;Samples;Min_cycle;Max_cycle;Signal;HPM_P1;HPM_P2
2024/04/14 00:04:06;;;;;;;5.20;4.60;;;;;;;12.49;71.33;99998.46;217640;1257;142736;-70
2024/04/14 00:09:08;;;;;;;9.20;6.20;;;;;;;12.42;71.37;99994.34;217678;1259;140199;-68
2024/04/14 00:14:10;;;;;;;18.70;6.00;;;;;;;12.36;71.62;99987.73;217094;1257;141046;-67
2024/04/14 00:19:14;;;;;;;6.60;5.80;;;;;;;12.28;71.91;99986.89;217409;1260;141301;-68
2024/04/14 00:24:16;;;;;;;6.10;5.00;;;;;;;12.21;71.72;99979.66;217490;1256;140368;-68
2024/04/14 00:29:19;;;;;;;6.20;5.10;;;;;;;12.10;72.00;99964.98;217488;1257;140456;-69
2024/04/14 00:34:31;;;;;;;7.10;5.10;;;;;;;12.03;72.45;99957.42;220010;1256;140168;-69
2024/04/14 00:39:34;;;;;;;5.10;4.50;;;;;;;12.00;72.54;99950.35;219478;1259;141796;-69
2024/04/14 00:44:36;;;;;;;5.80;5.10;;;;;;;11.94;72.51;99945.86;217276;1258;139802;-69
2024/04/14 00:49:39;;;;;;;7.30;4.90;;;;;;;11.86;72.87;99940.71;217651;1259;140499;-69
2024/04/14 00:54:40;;;;;;;6.90;5.40;;;;;;;11.78;73.06;99935.77;217529;1257;141714;-71
2024/04/14 00:59:42;;;;;;;5.50;5.00;;;;;;;11.69;73.41;99925.90;217663;1257;139552;-69
2024/04/14 01:04:45;;;;;;;11.50;5.50;;;;;;;11.59;73.64;99924.11;217861;1257;140845;-71
2024/04/14 01:09:59;;;;;;;7.60;5.50;;;;;;;11.52;73.96;99918.75;217998;1255;140870;-71
2024/04/14 01:15:01;;;;;;;6.30;5.20;;;;;;;11.47;74.14;99914.85;217528;1257;139504;-70
2024/04/14 01:20:04;;;;;;;6.20;5.50;;;;;;;11.44;74.53;99906.30;217705;1259;140402;-72
2024/04/14 01:25:07;;;;;;;7.50;5.60;;;;;;;11.44;74.86;99899.67;217531;1257;140347;-72
2024/04/14 01:30:10;;;;;;;9.20;6.10;;;;;;;11.44;74.86;99889.73;217689;1257;140418;-71
2024/04/14 01:35:13;;;;;;;9.60;5.60;;;;;;;11.42;74.87;99884.32;217552;1258;141700;-71
2024/04/14 01:40:15;;;;;;;9.90;6.30;;;;;;;11.37;74.94;99878.34;217779;1257;140202;-70
2024/04/14 01:45:17;;;;;;;11.70;6.30;;;;;;;11.29;75.14;99874.93;217708;1257;141930;-70
2024/04/14 01:50:19;;;;;;;6.70;4.20;;;;;;;11.21;75.14;99864.25;217560;1257;140144;-72
2024/04/14 01:55:21;;;;;;;6.30;5.70;;;;;;;11.10;75.22;99852.06;217497;1256;141285;-72
2024/04/14 02:00:22;;;;;;;9.10;5.80;;;;;;;11.03;75.85;99847.64;218511;1257;140211;-72
2024/04/14 02:05:25;;;;;;;8.80;5.60;;;;;;;11.05;75.91;99838.95;217597;1259;140006;-71
2024/04/14 02:10:27;;;;;;;7.20;6.30;;;;;;;11.07;76.25;99827.88;217878;1259;141132;-72
2024/04/14 02:15:45;;;;;;;8.40;6.60;;;;;;;11.08;76.56;99821.56;217452;1257;141168;-74
2024/04/14 02:20:46;;;;;;;13.10;7.20;;;;;;;11.12;76.74;99816.52;219917;1255;139990;-70
2024/04/14 02:25:59;;;;;;;8.70;6.20;;;;;;;11.12;76.95;99809.05;218620;1257;140986;-69
2024/04/14 02:31:02;;;;;;;7.30;6.60;;;;;;;11.16;77.08;99796.42;217495;1257;139999;-69
2024/04/14 02:36:05;;;;;;;8.00;7.00;;;;;;;11.20;77.30;99794.84;218496;1260;140672;-70
2024/04/14 02:41:07;;;;;;;13.30;7.10;;;;;;;11.19;77.38;99788.11;217898;1261;139957;-69
2024/04/14 02:46:09;;;;;;;11.40;7.50;;;;;;;11.20;77.66;99780.38;217436;1255;140264;-69
2024/04/14 02:51:10;;;;;;;7.90;7.10;;;;;;;11.22;77.76;99770.98;217619;1259;140070;-70
2024/04/14 02:56:13;;;;;;;10.50;7.60;;;;;;;11.25;78.12;99759.25;217431;1257;139993;-70
2024/04/14 03:01:17;;;;;;;11.10;6.60;;;;;;;11.27;78.24;99747.23;217599;1259;141479;-70
2024/04/14 03:06:19;;;;;;;8.20;7.00;;;;;;;11.29;78.33;99740.91;217541;1257;139982;-69
2024/04/14 03:11:21;;;;;;;9.90;8.00;;;;;;;11.31;78.42;99737.84;217371;1260;140109;-68
2024/04/14 03:16:23;;;;;;;12.60;8.70;;;;;;;11.35;78.85;99733.52;217617;1257;140523;-69
2024/04/14 03:21:25;;;;;;;9.50;7.90;;;;;;;11.39;78.96;99730.10;217484;1257;140921;-68
2024/04/14 03:26:27;;;;;;;8.70;5.90;;;;;;;11.43;78.85;99723.86;217323;1259;140560;-69
2024/04/14 03:31:29;;;;;;;10.70;8.10;;;;;;;11.46;79.16;99718.41;217390;1257;140664;-69
2024/04/14 03:36:31;;;;;;;7.70;6.90;;;;;;;11.51;79.02;99715.77;217615;1257;140212;-67
2024/04/14 03:41:33;;;;;;;7.20;6.50;;;;;;;11.56;79.13;99716.84;217526;1257;140640;-69
2024/04/14 03:46:35;;;;;;;13.70;7.60;;;;;;;11.62;78.95;99713.98;217375;1257;139972;-68
2024/04/14 03:51:36;;;;;;;7.80;6.70;;;;;;;11.65;78.90;99707.89;217454;1259;140771;-72
2024/04/14 03:56:38;;;;;;;7.20;6.40;;;;;;;11.69;79.02;99697.27;217478;1259;140480;-70
2024/04/14 04:01:40;;;;;;;8.30;7.40;;;;;;;11.73;79.10;99694.67;217433;1257;140462;-74
2024/04/14 04:06:41;;;;;;;8.80;6.60;;;;;;;11.77;79.00;99687.83;217551;1257;140329;-70
2024/04/14 04:11:43;;;;;;;8.20;7.40;;;;;;;11.82;79.14;99680.48;217578;1259;139723;-71
2024/04/14 04:16:45;;;;;;;7.80;7.10;;;;;;;11.90;79.21;99670.88;217888;1257;139880;-72
2024/04/14 04:21:47;;;;;;;6.70;6.00;;;;;;;11.97;79.21;99660.77;220338;1257;140724;-69
2024/04/14 04:26:49;;;;;;;7.40;6.70;;;;;;;12.07;79.11;99656.75;217885;1257;142080;-68
2024/04/14 04:31:50;;;;;;;7.40;6.70;;;;;;;12.18;78.82;99657.86;217570;1257;140182;-69
2024/04/14 04:36:53;;;;;;;8.40;6.10;;;;;;;12.29;78.83;99658.20;218617;1259;140233;-69
2024/04/14 04:41:55;;;;;;;6.00;5.40;;;;;;;12.38;78.79;99649.30;217763;1259;141432;-69
2024/04/14 04:46:56;;;;;;;8.60;6.50;;;;;;;12.48;78.53;99644.89;217325;1257;141100;-70
2024/04/14 04:51:58;;;;;;;7.00;6.10;;;;;;;12.61;78.64;99641.86;217366;1260;141800;-71
2024/04/14 04:57:00;;;;;;;6.10;5.60;;;;;;;12.74;78.43;99642.56;217666;1260;140778;-71
2024/04/14 05:02:03;;;;;;;7.70;7.00;;;;;;;12.86;78.38;99641.66;217737;1257;140839;-70
2024/04/14 05:07:06;;;;;;;7.30;6.60;;;;;;;12.99;78.21;99629.45;217241;1259;141903;-70
2024/04/14 05:12:08;;;;;;;8.60;5.70;;;;;;;13.15;77.91;99620.93;218154;1259;141084;-70
2024/04/14 05:17:10;;;;;;;7.30;6.60;;;;;;;13.35;77.80;99615.34;217340;1257;140353;-70
2024/04/14 05:22:13;;;;;;;7.70;6.70;;;;;;;13.58;77.76;99626.80;217625;1262;141220;-70
2024/04/14 05:27:16;;;;;;;10.30;5.80;;;;;;;13.81;77.50;99612.28;217411;1255;141312;-70
2024/04/14 05:32:18;;;;;;;6.00;5.50;;;;;;;14.00;77.12;99607.20;217498;1258;140230;-69
2024/04/14 05:37:20;;;;;;;6.00;5.50;;;;;;;14.21;76.88;99609.77;217451;1259;140582;-70
2024/04/14 05:42:23;;;;;;;6.00;5.40;;;;;;;14.41;76.58;99608.36;217786;1257;139780;-71
2024/04/14 05:47:24;;;;;;;6.90;5.90;;;;;;;14.64;76.49;99607.06;217368;1257;141094;-71
2024/04/14 05:52:26;;;;;;;6.50;5.80;;;;;;;14.87;76.09;99602.06;217427;1260;141640;-70
2024/04/14 05:57:28;;;;;;;5.90;5.40;;;;;;;15.11;75.62;99599.57;217472;1258;141385;-71
2024/04/14 06:02:30;;;;;;;5.40;4.70;;;;;;;15.35;75.46;99594.25;217365;1260;141930;-69
2024/04/14 06:07:32;;;;;;;9.40;5.70;;;;;;;15.59;75.06;99591.03;218223;1258;140312;-71
2024/04/14 06:12:34;;;;;;;6.70;4.60;;;;;;;15.81;74.52;99586.76;220316;1257;140712;-71
2024/04/14 06:17:38;;;;;;;11.10;5.50;;;;;;;15.99;73.97;99585.20;217410;1260;140269;-71
2024/04/14 06:22:40;;;;;;;7.70;5.10;;;;;;;16.22;73.61;99585.38;220128;1257;141033;-71
2024/04/14 06:27:41;;;;;;;7.50;5.20;;;;;;;16.48;73.32;99585.58;217520;1259;140640;-71
2024/04/14 06:32:43;;;;;;;5.40;4.90;;;;;;;16.71;72.68;99580.53;217384;1256;140841;-71
2024/04/14 06:37:45;;;;;;;8.80;4.60;;;;;;;16.94;72.37;99572.36;217393;1261;140298;-70
2024/04/14 06:42:47;;;;;;;5.90;4.90;;;;;;;17.16;71.83;99563.04;217879;1262;141739;-69
2024/04/14 06:47:48;;;;;;;5.50;5.00;;;;;;;17.41;71.27;99566.21;217381;1259;140675;-71
2024/04/14 06:52:50;;;;;;;4.60;4.20;;;;;;;17.66;70.93;99563.77;217601;1261;141042;-70
2024/04/14 06:57:52;;;;;;;5.80;5.30;;;;;;;17.99;70.23;99560.35;217428;1258;140690;-73
2024/04/14 07:02:54;;;;;;;5.10;4.70;;;;;;;18.21;69.66;99558.95;217692;1263;140392;-72
2024/04/14 07:07:56;;;;;;;9.30;7.00;;;;;;;18.41;69.03;99557.13;217572;1260;140870;-71
2024/04/14 07:12:58;;;;;;;6.70;5.50;;;;;;;18.57;68.63;99564.71;218381;1260;140095;-73
2024/04/14 07:17:59;;;;;;;13.00;4.70;;;;;;;18.94;68.18;99567.80;218247;1256;141939;-71
2024/04/14 07:23:00;;;;;;;4.30;3.90;;;;;;;19.40;67.74;99564.99;217437;1262;141447;-70
2024/04/14 07:28:02;;;;;;;9.90;4.90;;;;;;;19.67;67.00;99573.35;217411;1259;140086;-72
2024/04/14 07:33:03;;;;;;;6.20;4.20;;;;;;;19.78;66.45;99573.64;217329;1261;139710;-72
2024/04/14 07:38:05;;;;;;;8.60;4.20;;;;;;;20.01;65.92;99573.36;217081;1258;140687;-72
2024/04/14 07:43:07;;;;;;;6.20;4.50;;;;;;;20.23;65.31;99571.44;217674;1258;139997;-72
2024/04/14 07:48:09;;;;;;;7.70;4.90;;;;;;;20.37;64.72;99572.41;217701;1262;140080;-72
2024/04/14 07:53:10;;;;;;;6.20;4.60;;;;;;;20.39;64.04;99573.13;218297;1257;140500;-70
2024/04/14 07:58:11;;;;;;;5.80;4.60;;;;;;;20.25;63.41;99577.03;217564;1263;140511;-73
2024/04/14 08:03:12;;;;;;;4.60;4.20;;;;;;;20.15;63.29;99575.45;217591;1260;141770;-72
2024/04/14 08:08:14;;;;;;;11.80;6.00;;;;;;;20.42;63.75;99576.05;217671;1257;139895;-69
2024/04/14 08:13:15;;;;;;;5.30;4.70;;;;;;;20.74;63.38;99568.37;217507;1260;139074;-71
2024/04/14 08:18:22;;;;;;;7.10;5.00;;;;;;;20.96;63.07;99564.34;217613;1257;140213;-70
2024/04/14 08:23:25;;;;;;;7.00;5.40;;;;;;;21.19;62.74;99570.17;218201;1260;139891;-72
2024/04/14 08:28:27;;;;;;;7.30;4.80;;;;;;;21.38;62.22;99561.21;218374;1260;139901;-71
2024/04/14 08:33:28;;;;;;;5.00;4.50;;;;;;;21.51;62.14;99567.15;217596;1260;139657;-71
2024/04/14 08:38:30;;;;;;;5.00;4.50;;;;;;;21.93;62.55;99566.64;217481;1258;139777;-71
2024/04/14 08:43:31;;;;;;;9.40;5.80;;;;;;;22.32;62.03;99567.22;217648;1257;139685;-72
2024/04/14 08:48:33;;;;;;;6.50;4.70;;;;;;;22.55;60.80;99568.67;217777;1258;139836;-70
2024/04/14 08:53:39;;;;;;;4.90;4.50;;;;;;;22.64;60.80;99565.88;217397;1257;139283;-72
2024/04/14 08:58:42;;;;;;;4.90;4.40;;;;;;;22.84;60.82;99562.10;217400;1260;139543;-72
2024/04/14 09:03:46;;;;;;;6.30;5.60;;;;;;;22.95;59.74;99560.73;217553;1257;140012;-71
2024/04/14 09:08:48;;;;;;;7.10;5.20;;;;;;;23.02;59.27;99572.80;217931;1258;140719;-70
2024/04/14 09:13:50;;;;;;;7.50;5.60;;;;;;;22.89;58.55;99569.73;217840;1260;139596;-71
2024/04/14 09:18:52;;;;;;;5.70;5.10;;;;;;;22.49;58.16;99583.45;217621;1260;139584;-71
2024/04/14 09:23:54;;;;;;;8.20;5.50;;;;;;;22.30;58.31;99583.86;217642;1260;139895;-70
2024/04/14 09:29:08;;;;;;;9.80;5.30;;;;;;;22.15;58.58;99580.63;217453;1257;139066;-71
2024/04/14 09:34:10;;;;;;;9.50;5.20;;;;;;;22.14;58.84;99594.68;217398;1260;139739;-71
2024/04/14 09:39:12;;;;;;;21.90;6.00;;;;;;;22.11;58.76;99593.13;217494;1260;140863;-70
2024/04/14 09:44:15;;;;;;;6.50;5.50;;;;;;;22.16;58.71;99588.73;217432;1262;140072;-70
2024/04/14 09:49:17;;;;;;;17.90;4.90;;;;;;;22.66;58.81;99589.79;217484;1257;139450;-69
2024/04/14 09:54:21;;;;;;;5.40;5.00;;;;;;;22.82;58.24;99595.73;218759;1260;140639;-70
2024/04/14 09:59:23;;;;;;;6.10;3.90;;;;;;;22.34;56.96;99596.96;217349;1260;139099;-71
2024/04/14 10:04:25;;;;;;;9.30;3.50;;;;;;;21.94;56.07;99607.73;217263;1260;143619;-70
2024/04/14 10:09:27;;;;;;;5.90;3.80;;;;;;;21.71;55.43;99605.20;218115;1259;138838;-71
2024/04/14 10:14:38;;;;;;;10.20;4.40;;;;;;;21.63;55.50;99611.06;217520;1257;139621;-70
2024/04/14 10:19:40;;;;;;;5.10;3.90;;;;;;;21.41;55.08;99614.65;218697;1258;140163;-70
2024/04/14 10:24:49;;;;;;;4.40;3.60;;;;;;;21.30;54.98;99617.81;217761;1260;140559;-72
2024/04/14 10:29:56;;;;;;;4.60;4.20;;;;;;;21.53;55.22;99613.48;217667;1258;140207;-70
2024/04/14 10:34:58;;;;;;;5.40;3.10;;;;;;;21.93;55.15;99605.59;218068;1259;139024;-71
2024/04/14 10:40:01;;;;;;;7.40;4.90;;;;;;;22.23;55.13;99602.48;217620;1259;139947;-69
2024/04/14 10:45:02;;;;;;;6.60;4.30;;;;;;;21.78;53.46;99616.14;217780;1257;139398;-69
2024/04/14 10:50:04;;;;;;;6.00;4.10;;;;;;;21.05;53.14;99624.70;217550;1256;140683;-69
2024/04/14 10:55:06;;;;;;;7.90;4.50;;;;;;;20.50;53.33;99626.27;217850;1257;139922;-72
2024/04/14 11:00:08;;;;;;;5.70;3.40;;;;;;;20.30;53.98;99622.08;217933;1257;139452;-70
2024/04/14 11:05:11;;;;;;;4.40;3.80;;;;;;;20.26;54.33;99628.05;217551;1257;139310;-72
2024/04/14 11:10:13;;;;;;;7.40;4.00;;;;;;;20.04;54.41;99627.64;217482;1258;140323;-70
2024/04/14 11:15:14;;;;;;;5.40;4.30;;;;;;;19.76;54.77;99635.88;217755;1259;140426;-71
2024/04/14 11:20:16;;;;;;;4.20;3.50;;;;;;;19.54;55.10;99642.45;217520;1260;140612;-72
2024/04/14 11:25:17;;;;;;;6.70;4.60;;;;;;;19.39;55.11;99646.14;217450;1257;140258;-72
2024/04/14 11:30:18;;;;;;;3.10;2.60;;;;;;;19.29;54.74;99647.77;217549;1260;140251;-72
2024/04/14 11:35:20;;;;;;;4.90;2.90;;;;;;;19.10;54.75;99655.89;218740;1259;142210;-70
2024/04/14 11:40:23;;;;;;;7.30;3.30;;;;;;;18.96;54.95;99653.55;219362;1257;394119;-70
2024/04/14 11:45:24;;;;;;;6.20;4.10;;;;;;;18.88;55.26;99657.99;220004;1257;139879;-68
2024/04/14 11:50:26;;;;;;;5.00;3.00;;;;;;;18.82;55.25;99656.45;217553;1257;139960;-72
2024/04/14 11:55:27;;;;;;;6.00;2.80;;;;;;;18.75;54.99;99658.86;218405;1255;139832;-73
2024/04/14 12:00:29;;;;;;;4.40;2.30;;;;;;;18.73;55.27;99654.19;218823;1257;140366;-72
2024/04/14 12:05:31;;;;;;;5.20;2.80;;;;;;;18.78;55.40;99649.42;217884;1257;139446;-72
2024/04/14 12:10:33;;;;;;;4.40;2.40;;;;;;;18.86;55.82;99653.91;217778;1260;140084;-71
2024/04/14 12:15:34;;;;;;;8.30;2.50;;;;;;;18.99;55.90;99648.64;217369;1257;139601;-71
2024/04/14 12:20:35;;;;;;;4.20;3.30;;;;;;;19.60;55.97;99637.97;217465;1257;140325;-70
2024/04/14 12:25:37;;;;;;;3.70;2.20;;;;;;;20.32;55.58;99628.55;217305;1260;140171;-72
2024/04/14 12:30:39;;;;;;;4.40;2.70;;;;;;;20.79;54.79;99629.34;217513;1257;139581;-71
2024/04/14 12:35:41;;;;;;;4.30;1.80;;;;;;;20.97;53.77;99620.39;217537;1257;139358;-70
2024/04/14 12:40:43;;;;;;;2.10;1.50;;;;;;;20.87;53.23;99618.29;217406;1260;139625;-71
2024/04/14 12:45:48;;;;;;;6.90;2.20;;;;;;;21.08;53.16;99610.34;217401;1257;139298;-70
2024/04/14 12:50:51;;;;;;;2.90;2.70;;;;;;;21.04;52.23;99608.91;217307;1257;139952;-70
2024/04/14 12:55:52;;;;;;;11.70;2.90;;;;;;;20.91;51.80;99607.68;217249;1260;139943;-73
2024/04/14 13:00:57;;;;;;;2.40;2.30;;;;;;;20.65;51.44;99616.50;218140;1257;140140;-71
2024/04/14 13:05:59;;;;;;;4.00;1.90;;;;;;;20.18;51.36;99625.06;217399;1257;139870;-71
2024/04/14 13:11:01;;;;;;;4.30;1.50;;;;;;;19.84;52.00;99632.16;217330;1259;139433;-70
2024/04/14 13:16:03;;;;;;;3.50;2.10;;;;;;;19.67;52.33;99637.05;217613;1259;141969;-71
2024/04/14 13:21:05;;;;;;;7.10;2.20;;;;;;;19.52;52.72;99626.05;217559;1257;161014;-70
2024/04/14 13:26:06;;;;;;;6.20;4.10;;;;;;;19.48;53.14;99621.95;217583;1256;141696;-70
2024/04/14 13:31:07;;;;;;;2.70;1.90;;;;;;;19.66;53.45;99608.77;217542;1257;139436;-71
2024/04/14 13:36:09;;;;;;;7.00;3.10;;;;;;;19.74;53.32;99603.89;218144;1256;140074;-70
2024/04/14 13:41:10;;;;;;;2.80;1.90;;;;;;;19.71;53.38;99604.69;217470;1257;139115;-73
2024/04/14 13:46:11;;;;;;;2.50;2.00;;;;;;;20.08;53.57;99605.34;217614;1259;140648;-70
2024/04/14 13:51:13;;;;;;;5.40;2.10;;;;;;;20.18;52.97;99605.86;217476;1260;139005;-70
2024/04/14 13:56:14;;;;;;;7.70;2.40;;;;;;;20.10;52.36;99607.75;217391;1257;140181;-71
2024/04/14 14:01:16;;;;;;;3.20;1.60;;;;;;;20.03;51.88;99600.09;217588;1257;139991;-71
2024/04/14 14:06:16;;;;;;;6.30;1.90;;;;;;;19.91;51.95;99595.83;218703;1256;139745;-70
2024/04/14 14:11:18;;;;;;;1.80;1.60;;;;;;;19.80;51.94;99588.27;217559;1257;140500;-70
2024/04/14 14:16:19;;;;;;;2.60;1.70;;;;;;;19.66;52.01;99590.93;217674;1259;139135;-69
2024/04/14 14:21:21;;;;;;;3.20;2.50;;;;;;;19.52;52.04;99595.78;217551;1257;139910;-70
2024/04/14 14:26:22;;;;;;;1.90;1.60;;;;;;;19.49;52.07;99588.79;217705;1255;139345;-70
2024/04/14 14:31:24;;;;;;;1.90;1.50;;;;;;;19.64;51.84;99583.23;217453;1257;139945;-70
2024/04/14 14:36:33;;;;;;;5.50;2.40;;;;;;;19.58;51.11;99602.88;217651;1257;140627;-70
2024/04/14 14:41:36;;;;;;;3.90;2.00;;;;;;;19.73;50.89;99594.38;217520;1256;139218;-70
2024/04/14 14:46:38;;;;;;;14.60;7.30;;;;;;;19.58;50.50;99601.13;217641;1257;140131;-70
2024/04/14 14:51:41;;;;;;;3.10;1.70;;;;;;;19.42;50.16;99597.98;217733;1259;142524;-70
2024/04/14 14:56:42;;;;;;;8.00;2.00;;;;;;;19.45;50.10;99600.80;217593;1256;140730;-70
2024/04/14 15:01:44;;;;;;;7.80;1.30;;;;;;;19.30;49.80;99618.77;217615;1257;139874;-70
2024/04/14 15:06:45;;;;;;;3.70;1.20;;;;;;;18.97;49.51;99626.89;217432;1259;140331;-70
2024/04/14 15:11:48;;;;;;;3.60;1.00;;;;;;;18.81;49.74;99628.70;217798;1259;139079;-70
2024/04/14 15:16:49;;;;;;;4.30;2.40;;;;;;;18.59;49.50;99628.61;218105;1260;140326;-70
2024/04/14 15:21:51;;;;;;;2.50;1.80;;;;;;;18.48;49.85;99629.33;217390;1257;221598;-70
2024/04/14 15:26:53;;;;;;;4.40;1.50;;;;;;;18.39;49.82;99636.77;217553;1257;139915;-68
2024/04/14 15:31:55;;;;;;;3.50;1.60;;;;;;;18.29;50.04;99639.65;217522;1259;140175;-70
2024/04/14 15:36:56;;;;;;;4.20;1.30;;;;;;;18.15;50.05;99644.00;217693;1257;139710;-70
2024/04/14 15:41:58;;;;;;;2.70;1.60;;;;;;;17.98;49.86;99640.10;219071;1256;139214;-70
2024/04/14 15:46:59;;;;;;;4.60;2.30;;;;;;;17.91;50.02;99645.98;217748;1259;139780;-67
2024/04/14 15:52:00;;;;;;;2.60;1.50;;;;;;;17.95;49.93;99646.55;217770;1256;232018;-70
2024/04/14 15:57:02;;;;;;;4.60;2.60;;;;;;;17.87;49.94;99651.42;217597;1257;140325;-69
2024/04/14 16:02:05;;;;;;;5.30;1.40;;;;;;;17.68;49.73;99654.33;217548;1259;141677;-69
2024/04/14 16:07:07;;;;;;;4.30;1.40;;;;;;;17.50;49.77;99659.15;217988;1259;140504;-70
2024/04/14 16:12:10;;;;;;;4.20;1.70;;;;;;;17.38;49.65;99662.17;217833;1257;139968;-68
2024/04/14 16:17:11;;;;;;;1.20;1.00;;;;;;;17.40;49.98;99663.83;217468;1257;143080;-72
2024/04/14 16:22:13;;;;;;;5.40;1.40;;;;;;;17.33;49.65;99666.95;217651;1259;140558;-72
2024/04/14 16:27:15;;;;;;;2.10;1.80;;;;;;;17.20;49.46;99665.84;217160;1258;139405;-72
2024/04/14 16:32:16;;;;;;;4.30;1.10;;;;;;;17.07;49.21;99670.91;217200;1262;140987;-72
2024/04/14 16:37:18;;;;;;;3.00;0.80;;;;;;;16.92;49.30;99670.27;217009;1257;139007;-73
2024/04/14 16:42:19;;;;;;;4.20;1.60;;;;;;;16.80;49.25;99673.52;217331;1261;139872;-72
2024/04/14 16:47:20;;;;;;;3.60;2.30;;;;;;;16.72;49.45;99688.20;217068;1258;139564;-73
2024/04/14 16:52:22;;;;;;;4.60;2.40;;;;;;;16.63;49.52;99678.48;217803;1257;139980;-71
2024/04/14 16:57:23;;;;;;;2.40;1.60;;;;;;;16.48;49.19;99678.15;217238;1259;139185;-71
2024/04/14 17:02:27;;;;;;;2.50;1.70;;;;;;;16.35;49.02;99680.13;217197;1257;140079;-71
2024/04/14 17:07:29;;;;;;;1.70;1.30;;;;;;;16.27;49.03;99681.48;217294;1262;139416;-71
2024/04/14 17:12:30;;;;;;;7.00;1.70;;;;;;;16.09;48.67;99682.45;217707;1257;140135;-71
2024/04/14 17:17:33;;;;;;;6.50;1.50;;;;;;;15.91;48.56;99680.48;217311;1257;139020;-71
2024/04/14 17:22:34;;;;;;;15.00;6.10;;;;;;;15.73;48.51;99687.17;218693;1257;140178;-72
2024/04/14 17:27:36;;;;;;;4.00;1.70;;;;;;;15.59;48.56;99692.27;218456;1257;140092;-71
2024/04/14 17:32:38;;;;;;;7.30;1.50;;;;;;;15.44;48.27;99695.46;217195;1257;139613;-71
2024/04/14 17:37:40;;;;;;;6.80;2.30;;;;;;;15.30;48.10;99702.48;217544;1257;141497;-71
2024/04/14 17:42:41;;;;;;;8.50;1.40;;;;;;;15.15;47.85;99696.92;220353;1257;139704;-71
2024/04/14 17:47:43;;;;;;;1.80;0.90;;;;;;;15.04;47.72;99705.27;218974;1257;140368;-71
2024/04/14 17:52:45;;;;;;;2.00;1.10;;;;;;;14.98;47.50;99714.33;217618;1256;140265;-71
2024/04/14 17:57:47;;;;;;;2.30;1.20;;;;;;;14.90;47.09;99724.79;218189;1256;139734;-70
2024/04/14 18:02:48;;;;;;;2.20;1.60;;;;;;;14.76;46.79;99726.16;217878;1260;140323;-72
2024/04/14 18:07:50;;;;;;;1.70;0.90;;;;;;;14.60;46.50;99727.88;217572;1260;139606;-71
2024/04/14 18:12:52;;;;;;;2.40;1.10;;;;;;;14.41;46.08;99719.17;218463;1257;139175;-70
2024/04/14 18:17:54;;;;;;;2.70;1.30;;;;;;;14.26;45.83;99720.79;217380;1257;140206;-70
2024/04/14 18:23:04;;;;;;;3.40;2.20;;;;;;;14.05;45.79;99723.65;217662;1257;139662;-69
2024/04/14 18:28:06;;;;;;;3.10;1.90;;;;;;;13.82;45.99;99723.96;217377;1258;140240;-70
2024/04/14 18:33:08;;;;;;;4.60;1.30;;;;;;;13.59;46.64;99729.83;217631;1257;140373;-70
2024/04/14 18:38:10;;;;;;;6.60;1.80;;;;;;;13.38;47.07;99737.09;217571;1258;139235;-70
2024/04/14 18:43:12;;;;;;;6.70;1.50;;;;;;;13.17;47.56;99738.61;217607;1256;139563;-70
2024/04/14 18:48:13;;;;;;;4.20;2.40;;;;;;;12.91;47.72;99741.35;217667;1257;141242;-70
2024/04/14 18:53:14;;;;;;;2.20;1.50;;;;;;;12.62;48.53;99748.05;217620;1257;139339;-69
2024/04/14 18:58:16;;;;;;;2.80;1.70;;;;;;;12.37;48.72;99746.32;217677;1257;139222;-71
2024/04/14 19:03:18;;;;;;;8.40;3.00;;;;;;;12.19;48.40;99747.83;217463;1259;140706;-70
2024/04/14 19:08:25;;;;;;;7.50;3.10;;;;;;;12.11;48.36;99755.50;218271;1259;139674;-67
2024/04/14 19:13:27;;;;;;;;;;;;;;;12.06;47.94;99758.05;217596;1257;140574;-70
2024/04/14 19:18:28;;;;;;;9.90;3.60;;;;;;;11.97;48.11;99758.61;218114;1259;126008;-69
2024/04/14 19:23:31;;;;;;;4.00;2.10;;;;;;;11.86;48.05;99760.67;217513;1257;140164;-69
2024/04/14 19:28:32;;;;;;;7.70;3.60;;;;;;;11.79;47.90;99755.79;219026;1258;139864;-70
2024/04/14 19:33:33;;;;;;;5.70;3.90;;;;;;;11.72;47.70;99744.21;217610;1259;140056;-69
2024/04/14 19:38:35;;;;;;;5.30;2.40;;;;;;;11.65;47.67;99739.08;218935;1259;139456;-69
2024/04/14 19:43:36;;;;;;;8.90;1.70;;;;;;;11.56;47.67;99743.00;217385;1257;139351;-69
2024/04/14 19:48:38;;;;;;;3.90;2.20;;;;;;;11.43;47.48;99740.09;217584;1257;140344;-69
2024/04/14 19:53:39;;;;;;;3.60;1.50;;;;;;;11.23;48.28;99734.45;217270;1257;139885;-69
2024/04/14 19:58:41;;;;;;;1.90;1.30;;;;;;;11.05;48.76;99728.81;217331;1256;140007;-69
2024/04/14 20:03:43;;;;;;;2.20;1.00;;;;;;;10.81;49.26;99719.88;217370;1257;140203;-68
2024/04/14 20:08:44;;;;;;;6.50;1.70;;;;;;;10.60;49.55;99721.74;217320;1259;139409;-70
2024/04/14 20:13:46;;;;;;;2.20;1.20;;;;;;;10.38;50.37;99724.48;217324;1259;139310;-69
2024/04/14 20:18:49;;;;;;;3.20;2.10;;;;;;;10.12;51.13;99723.18;217588;1256;139258;-70
2024/04/14 20:23:50;;;;;;;2.10;1.40;;;;;;;9.82;51.78;99731.14;217338;1256;138934;-68
2024/04/14 20:28:52;;;;;;;2.80;1.60;;;;;;;9.51;52.33;99734.08;217493;1257;140030;-70
2024/04/14 20:33:53;;;;;;;4.10;1.60;;;;;;;9.32;53.18;99740.81;217406;1256;139154;-69
2024/04/14 20:38:56;;;;;;;6.70;1.80;;;;;;;9.12;53.78;99745.43;217517;1257;140060;-69
2024/04/14 20:43:58;;;;;;;4.60;2.40;;;;;;;8.86;54.53;99745.02;217536;1257;140067;-69
2024/04/14 20:49:01;;;;;;;3.70;1.80;;;;;;;8.59;55.44;99744.68;217679;1260;138743;-69
2024/04/14 20:54:03;;;;;;;4.30;2.30;;;;;;;8.37;55.65;99748.58;218350;1259;139175;-69
2024/04/14 20:59:05;;;;;;;4.50;2.20;;;;;;;8.16;55.91;99749.07;217395;1259;138960;-69
2024/04/14 21:04:07;;;;;;;1.80;1.20;;;;;;;7.95;56.21;99748.59;217387;1258;139694;-70
2024/04/14 21:09:09;;;;;;;4.40;2.00;;;;;;;7.73;56.56;99735.90;217416;1259;138734;-68
2024/04/14 21:14:10;;;;;;;2.00;1.60;;;;;;;7.56;56.87;99736.00;218763;1258;140154;-71
2024/04/14 21:19:12;;;;;;;19.10;3.30;;;;;;;7.48;57.42;99730.63;217489;1258;138234;-69
2024/04/14 21:24:14;;;;;;;6.20;2.40;;;;;;;7.42;58.31;99730.41;217667;1259;139962;-69
2024/04/14 21:29:16;;;;;;;4.20;2.60;;;;;;;7.34;58.44;99734.34;218583;1259;140456;-70
2024/04/14 21:34:18;;;;;;;4.70;2.60;;;;;;;7.25;58.66;99735.35;219297;1257;139350;-69
2024/04/14 21:39:21;;;;;;;5.40;2.20;;;;;;;7.13;59.15;99739.80;217697;1258;139417;-70
2024/04/14 21:44:23;;;;;;;3.50;2.20;;;;;;;7.04;59.06;99732.30;217529;1259;139641;-69
2024/04/14 21:49:25;;;;;;;3.70;2.40;;;;;;;7.02;59.59;99729.27;217590;1259;139245;-69
2024/04/14 21:54:27;;;;;;;8.30;2.90;;;;;;;7.02;60.34;99721.85;217665;1258;140216;-69
2024/04/14 21:59:30;;;;;;;9.60;4.30;;;;;;;6.98;60.49;99720.08;218279;1257;141874;-69
2024/04/14 22:04:32;;;;;;;4.90;3.00;;;;;;;6.95;60.19;99707.66;218484;1257;139966;-70
2024/04/14 22:09:33;;;;;;;4.60;3.20;;;;;;;6.93;60.23;99704.81;217635;1258;140079;-69
2024/04/14 22:14:36;;;;;;;4.20;2.80;;;;;;;6.89;60.54;99698.59;217352;1261;138893;-68
2024/04/14 22:19:37;;;;;;;4.90;3.20;;;;;;;6.82;60.30;99696.21;217182;1257;139428;-69
2024/04/14 22:24:40;;;;;;;7.70;2.60;;;;;;;6.73;60.49;99689.81;217403;1259;139769;-69
2024/04/14 22:29:41;;;;;;;17.00;5.40;;;;;;;6.65;60.86;99692.06;218001;1260;139995;-69
2024/04/14 22:34:43;;;;;;;9.60;5.80;;;;;;;6.58;60.75;99695.84;217647;1259;139800;-69
2024/04/14 22:39:46;;;;;;;7.90;4.70;;;;;;;6.52;61.18;99697.03;217440;1257;141620;-69
2024/04/14 22:44:48;;;;;;;10.30;4.10;;;;;;;6.46;61.40;99694.00;217423;1257;139630;-68
2024/04/14 22:49:50;;;;;;;7.50;3.00;;;;;;;6.39;61.52;99693.26;217358;1257;143290;-69
2024/04/14 22:54:52;;;;;;;4.80;2.40;;;;;;;6.42;62.33;99700.98;217275;1259;140073;-68
2024/04/14 22:59:54;;;;;;;5.10;2.40;;;;;;;6.45;62.13;99703.25;217154;1260;139690;-69
2024/04/14 23:04:56;;;;;;;6.50;2.00;;;;;;;6.47;62.18;99705.60;217935;1257;141046;-69
2024/04/14 23:09:59;;;;;;;6.00;3.60;;;;;;;6.48;62.38;99705.55;218073;1258;139996;-68